Flight Track Log - Related Links

Times and Time Zones

All times are in EDT time to prevent confusion due to time zone crossing. See the PN6226 flight status page for this flight to view local times or setup timezone preferences in your user account.


Time Position Orientation Groundspeed Altitude Reporting Facility
EDT Latitude Longitude Course Direction KTS MPH feet Rate Location/Type
Wed 02:02:00 AM 32.4194 104.1116 140° Southeast  Level Estimated
Wed 02:03:00 AM 32.3707 104.1590 141° Southeast  Level Estimated
Wed 02:04:00 AM 32.3242 104.2042 141° Southeast  Level Estimated
Wed 02:05:00 AM 32.2776 104.2494 141° Southeast  Level Estimated
Wed 02:06:00 AM 32.2310 104.2945 141° Southeast  Level Estimated
Wed 02:07:00 AM 32.1844 104.3395 141° Southeast  Level Estimated
Wed 02:08:00 AM 32.1378 104.3846 141° Southeast  Level Estimated
Wed 02:09:00 AM 32.0912 104.4295 141° Southeast  Level Estimated
Wed 02:10:00 AM 32.0446 104.4744 141° Southeast  Level Estimated
Wed 02:11:00 AM 31.9979 104.5193 141° Southeast  Level Estimated
Wed 02:12:00 AM 31.9512 104.5641 141° Southeast  Level Estimated
Wed 02:13:00 AM 31.9046 104.6089 141° Southeast  Level Estimated
Wed 02:14:00 AM 31.8578 104.6537 141° Southeast  Level Estimated
Wed 02:15:00 AM 31.8111 104.6984 141° Southeast  Level Estimated
Wed 02:16:00 AM 31.7644 104.7430 141° Southeast  Level Estimated
Wed 02:17:00 AM 31.7176 104.7876 141° Southeast  Level Estimated
Wed 02:18:00 AM 31.6709 104.8322 141° Southeast  Level Estimated
Wed 02:19:00 AM 31.6241 104.8767 141° Southeast  Level Estimated
Wed 02:20:00 AM 31.5773 104.9212 141° Southeast  Level Estimated
Wed 02:21:00 AM 31.5305 104.9656 141° Southeast  Level Estimated
Wed 02:22:00 AM 31.4837 105.0100 141° Southeast  Level Estimated
Wed 02:23:00 AM 31.4368 105.0543 141° Southeast  Level Estimated
Wed 02:24:00 AM 31.3900 105.0986 141° Southeast  Level Estimated
Wed 02:25:00 AM 31.3431 105.1429 141° Southeast  Level Estimated
Wed 02:26:00 AM 31.2962 105.1871 141° Southeast  Level Estimated
Wed 02:27:00 AM 31.2493 105.2312 141° Southeast  Level Estimated
Wed 02:28:00 AM 31.2024 105.2754 141° Southeast  Level Estimated
Wed 02:29:00 AM 31.1555 105.3194 141° Southeast  Level Estimated
Wed 02:30:00 AM 31.1085 105.3635 141° Southeast  Level Estimated
Wed 02:31:00 AM 31.0615 105.4074 141° Southeast  Level Estimated
Wed 02:32:00 AM 31.0146 105.4514 141° Southeast  Level Estimated
Wed 02:33:00 AM 30.9676 105.4953 141° Southeast  Level Estimated
Wed 02:34:00 AM 30.9206 105.5391 141° Southeast  Level Estimated
Wed 02:35:00 AM 30.8735 105.5830 141° Southeast  Level Estimated
Wed 02:36:00 AM 30.8265 105.6267 141° Southeast  Level Estimated
Wed 02:37:00 AM 30.7794 105.6705 141° Southeast  Level Estimated
Wed 02:38:00 AM 30.7324 105.7141 141° Southeast  Level Estimated
Wed 02:39:00 AM 30.6853 105.7578 141° Southeast  Level Estimated
Wed 02:40:00 AM 30.6382 105.8014 141° Southeast  Level Estimated
Wed 02:41:00 AM 30.5911 105.8449 141° Southeast  Level Estimated
Wed 02:42:00 AM 30.5440 105.8885 142° Southeast  Level Estimated
Wed 02:43:00 AM 30.4968 105.9319 142° Southeast  Level Estimated
Wed 02:44:00 AM 30.4497 105.9753 142° Southeast  Level Estimated
Wed 02:45:00 AM 30.4025 106.0187 142° Southeast  Level Estimated
Wed 02:46:00 AM 30.3553 106.0621 142° Southeast  Level Estimated
Wed 02:47:00 AM 30.3081 106.1054 142° Southeast  Level Estimated
Wed 02:48:00 AM 30.2609 106.1486 142° Southeast  Level Estimated
Wed 02:49:00 AM 30.2137 106.1919 142° Southeast  Level Estimated
Wed 02:50:00 AM 30.1664 106.2350 142° Southeast  Level Estimated
Wed 02:51:00 AM 30.1192 106.2782 142° Southeast  Level Estimated
Wed 02:52:00 AM 30.0719 106.3213 142° Southeast  Level Estimated
Wed 02:53:00 AM 30.0246 106.3643 142° Southeast  Level Estimated
Wed 02:54:00 AM 29.9773 106.4073 142° Southeast  Level Estimated
Wed 02:55:00 AM 29.9300 106.4503 142° Southeast  Level Estimated
Wed 02:56:00 AM 29.8827 106.4932 142° Southeast  Level Estimated
Wed 02:57:00 AM 29.8354 106.5361 142° Southeast  Level Estimated
Wed 02:58:00 AM 29.7880 106.5790 142° Southeast  Level Estimated
Wed 02:59:00 AM 29.7407 106.6218 142° Southeast  Level Estimated

Login

Don't have an account? Register now (free) for customized features, flight alerts, and more!